createdAt,value
2019-04-25T00:01:27.373Z,9.50
2019-04-25T00:03:57.517Z,9.40
2019-04-25T00:06:29.902Z,9.20
2019-04-25T00:09:00.002Z,9.10
2019-04-25T00:11:31.277Z,9.00
2019-04-25T00:14:01.668Z,9.00
2019-04-25T00:16:32.877Z,8.90
2019-04-25T00:19:03.055Z,8.90
2019-04-25T00:21:52.283Z,8.80
2019-04-25T00:24:47.984Z,8.80
2019-04-25T00:27:18.679Z,8.70
2019-04-25T00:29:48.818Z,8.70
2019-04-25T00:32:21.541Z,8.70
2019-04-25T00:34:51.852Z,8.80
2019-04-25T00:37:23.339Z,8.80
2019-04-25T00:39:54.669Z,8.60
2019-04-25T00:42:25.203Z,8.50
2019-04-25T00:44:55.341Z,8.40
2019-04-25T00:47:25.522Z,8.40
2019-04-25T00:49:55.673Z,8.30
2019-04-25T00:52:25.911Z,8.20
2019-04-25T00:54:56.221Z,8.20
2019-04-25T00:57:27.427Z,8.20
2019-04-25T01:00:05.192Z,8.10
2019-04-25T01:02:42.340Z,8.20
2019-04-25T01:05:13.412Z,8.20
2019-04-25T01:07:44.377Z,8.20
2019-04-25T01:10:15.721Z,8.10
2019-04-25T01:12:46.211Z,8.10
2019-04-25T01:15:17.663Z,8.40
2019-04-25T01:17:47.755Z,8.40
2019-04-25T01:20:17.836Z,8.30
2019-04-25T01:22:49.289Z,8.20
2019-04-25T01:25:21.075Z,8.20
2019-04-25T01:27:52.321Z,8.20
2019-04-25T01:30:25.691Z,8.10
2019-04-25T01:32:56.669Z,8.00
2019-04-25T01:35:37.102Z,7.90
2019-04-25T01:38:24.893Z,8.00
2019-04-25T01:41:14.553Z,8.00
2019-04-25T01:43:52.673Z,8.10
2019-04-25T01:46:20.915Z,8.20
2019-04-25T01:48:51.060Z,8.00
2019-04-25T01:51:21.157Z,8.00
2019-04-25T01:53:51.286Z,8.00
2019-04-25T01:56:22.989Z,8.10
2019-04-25T01:58:54.764Z,8.00
2019-04-25T02:01:25.744Z,7.90
2019-04-25T02:03:55.832Z,7.90
2019-04-25T02:06:25.937Z,7.80
2019-04-25T02:08:56.223Z,7.90
2019-04-25T02:11:34.011Z,7.80
2019-04-25T02:14:05.245Z,7.80
2019-04-25T02:16:35.701Z,7.90
2019-04-25T02:19:06.296Z,7.80
2019-04-25T02:21:36.482Z,7.60
2019-04-25T02:24:06.697Z,7.50
2019-04-25T02:26:37.420Z,7.40
2019-04-25T02:29:07.511Z,7.40
2019-04-25T02:31:37.664Z,7.30
2019-04-25T02:34:09.076Z,7.30
2019-04-25T02:36:39.306Z,7.30
2019-04-25T02:39:16.830Z,7.20
2019-04-25T02:41:46.958Z,7.20
2019-04-25T02:44:17.400Z,7.10
2019-04-25T02:47:02.213Z,7.00
2019-04-25T02:50:02.225Z,6.90
2019-04-25T02:52:47.719Z,6.80
2019-04-25T02:55:30.870Z,6.80
2019-04-25T02:57:50.171Z,6.80
2019-04-25T03:00:27.856Z,6.80
2019-04-25T03:02:59.187Z,6.90
2019-04-25T03:05:29.791Z,6.90
2019-04-25T03:08:01.483Z,6.90
2019-04-25T03:10:34.770Z,6.90
2019-04-25T03:13:07.975Z,7.00
2019-04-25T03:15:36.461Z,7.00
2019-04-25T03:18:10.839Z,7.10
2019-04-25T03:21:09.212Z,7.20
2019-04-25T03:23:37.198Z,7.20
2019-04-25T03:26:07.807Z,7.30
2019-04-25T03:28:38.151Z,7.30
2019-04-25T03:31:13.900Z,7.30
2019-04-25T03:33:40.328Z,7.40
2019-04-25T03:36:10.480Z,7.50
2019-04-25T03:38:40.690Z,7.40
2019-04-25T03:41:10.820Z,7.30
2019-04-25T03:43:40.869Z,7.30
2019-04-25T03:46:10.944Z,7.30
2019-04-25T03:48:41.283Z,7.30
2019-04-25T03:51:12.257Z,7.40
2019-04-25T03:53:43.771Z,7.40
2019-04-25T03:56:14.723Z,7.50
2019-04-25T03:58:45.172Z,7.70
2019-04-25T04:01:16.490Z,7.70
2019-04-25T04:03:46.566Z,7.60
2019-04-25T04:06:16.988Z,7.60
2019-04-25T04:08:47.314Z,7.60
2019-04-25T04:11:17.395Z,7.60
2019-04-25T04:13:47.535Z,7.50
2019-04-25T04:16:20.476Z,7.50
2019-04-25T04:18:54.095Z,7.60
2019-04-25T04:21:43.674Z,7.70
2019-04-25T04:24:34.183Z,7.80
2019-04-25T04:27:10.695Z,7.80
2019-04-25T04:29:40.884Z,7.90
2019-04-25T04:32:11.148Z,8.00
2019-04-25T04:34:43.500Z,8.00
2019-04-25T04:37:14.812Z,8.00
2019-04-25T04:39:45.482Z,8.10
2019-04-25T04:42:16.091Z,8.20
2019-04-25T04:44:46.518Z,8.20
2019-04-25T04:47:16.720Z,8.50
2019-04-25T04:49:47.074Z,8.60
2019-04-25T04:52:17.200Z,8.50
2019-04-25T04:54:47.552Z,8.50
2019-04-25T04:57:27.009Z,8.40
2019-04-25T04:59:49.664Z,8.30
2019-04-25T05:02:33.854Z,8.40
2019-04-25T05:05:23.554Z,8.50
2019-04-25T05:07:58.628Z,8.70
2019-04-25T05:10:28.856Z,8.70
2019-04-25T05:12:59.056Z,8.80
2019-04-25T05:15:29.056Z,8.90
2019-04-25T05:17:59.163Z,9.10
2019-04-25T05:20:29.318Z,9.20
2019-04-25T05:22:59.696Z,9.30
2019-04-25T05:25:30.854Z,9.30
2019-04-25T05:28:05.119Z,9.50
2019-04-25T05:30:49.064Z,9.50
2019-04-25T05:33:21.297Z,9.80
2019-04-25T05:35:50.970Z,9.80
2019-04-25T05:38:21.145Z,9.90
2019-04-25T05:40:59.000Z,10.10
2019-04-25T05:43:30.452Z,10.20
2019-04-25T05:46:00.926Z,10.20
2019-04-25T05:48:31.955Z,10.30
2019-04-25T05:51:03.936Z,10.50
2019-04-25T05:53:34.114Z,10.80
2019-04-25T05:56:04.472Z,11.20
2019-04-25T05:58:35.468Z,11.60
2019-04-25T06:01:06.040Z,11.60
2019-04-25T06:03:36.252Z,11.90
2019-04-25T06:06:06.816Z,12.20
2019-04-25T06:08:41.541Z,12.10
2019-04-25T06:11:23.897Z,12.10
2019-04-25T06:14:01.268Z,12.10
2019-04-25T06:16:35.070Z,12.30
2019-04-25T06:19:36.738Z,12.20
2019-04-25T06:22:09.954Z,12.20
2019-04-25T06:24:48.001Z,12.20
2019-04-25T06:27:27.056Z,12.50
2019-04-25T06:30:20.372Z,12.70
2019-04-25T06:32:50.717Z,12.70
2019-04-25T06:35:21.253Z,12.90
2019-04-25T06:37:53.684Z,13.10
2019-04-25T06:40:26.268Z,13.00
2019-04-25T06:42:57.351Z,13.10
2019-04-25T06:45:45.815Z,13.20
2019-04-25T06:48:23.129Z,13.30
2019-04-25T06:50:54.016Z,13.40
2019-04-25T06:53:25.626Z,13.50
2019-04-25T06:55:56.066Z,13.60
2019-04-25T06:58:27.530Z,13.60
2019-04-25T07:01:00.974Z,13.70
2019-04-25T07:03:30.195Z,14.00
2019-04-25T07:06:00.453Z,13.90
2019-04-25T07:08:31.138Z,14.00
2019-04-25T07:11:03.907Z,14.10
2019-04-25T07:13:38.554Z,14.10
2019-04-25T07:16:06.671Z,14.20
2019-04-25T07:18:37.367Z,14.50
2019-04-25T07:21:07.835Z,14.90
2019-04-25T07:23:38.249Z,14.80
2019-04-25T07:26:28.224Z,15.10
2019-04-25T07:29:06.603Z,15.20
2019-04-25T07:31:58.855Z,15.60
2019-04-25T07:34:29.198Z,15.80
2019-04-25T07:36:59.404Z,15.90
2019-04-25T07:39:29.658Z,15.90
2019-04-25T07:41:59.809Z,15.80
2019-04-25T07:44:45.370Z,15.90
2019-04-25T07:47:04.043Z,15.70
2019-04-25T07:49:34.822Z,16.00
2019-04-25T07:52:05.547Z,16.10
2019-04-25T07:54:36.523Z,16.00
2019-04-25T07:57:06.920Z,16.40
2019-04-25T07:59:37.351Z,16.50
2019-04-25T08:02:07.521Z,16.30
2019-04-25T08:04:38.378Z,16.70
2019-04-25T08:07:08.574Z,16.60
2019-04-25T08:09:39.054Z,16.60
2019-04-25T08:12:09.485Z,16.60
2019-04-25T08:14:45.926Z,16.80
2019-04-25T08:17:18.880Z,17.30
2019-04-25T08:19:49.135Z,17.60
2019-04-25T08:22:19.572Z,17.70
2019-04-25T08:24:49.717Z,17.90
2019-04-25T08:27:19.803Z,17.90
2019-04-25T08:29:49.848Z,17.80
2019-04-25T08:32:19.948Z,18.10
2019-04-25T08:34:50.320Z,18.20
2019-04-25T08:37:21.122Z,18.20
2019-04-25T08:39:51.596Z,18.40
2019-04-25T08:42:21.982Z,18.20
2019-04-25T08:44:53.453Z,18.70
2019-04-25T08:47:24.337Z,18.90
2019-04-25T08:50:03.674Z,18.40
2019-04-25T08:52:35.459Z,18.70
2019-04-25T08:55:16.689Z,19.00
2019-04-25T08:57:56.236Z,18.90
2019-04-25T09:00:59.368Z,18.90
2019-04-25T09:03:27.078Z,19.10
2019-04-25T09:05:57.655Z,19.90
2019-04-25T09:08:28.394Z,20.20
2019-04-25T09:10:58.693Z,20.10
2019-04-25T09:13:29.063Z,19.90
2019-04-25T09:15:59.254Z,20.10
2019-04-25T09:18:29.508Z,20.50
2019-04-25T09:20:59.616Z,20.40
2019-04-25T09:23:29.811Z,20.30
2019-04-25T09:25:59.901Z,20.30
2019-04-25T09:28:30.018Z,20.30
2019-04-25T09:31:00.207Z,20.30
2019-04-25T09:33:31.781Z,20.20
2019-04-25T09:36:02.056Z,21.00
2019-04-25T09:38:33.881Z,21.10
2019-04-25T09:41:04.148Z,21.30
2019-04-25T09:43:35.720Z,21.60
2019-04-25T09:46:25.187Z,21.50
2019-04-25T09:49:20.438Z,21.40
2019-04-25T09:51:55.312Z,21.60
2019-04-25T09:54:49.173Z,21.80
2019-04-25T09:57:53.871Z,22.00
2019-04-25T10:00:44.750Z,21.90
2019-04-25T10:03:16.963Z,21.40
2019-04-25T10:05:47.013Z,22.10
2019-04-25T10:08:17.171Z,22.30
2019-04-25T10:10:47.759Z,22.50
2019-04-25T10:13:18.169Z,23.00
2019-04-25T10:16:12.885Z,24.00
2019-04-25T10:18:44.658Z,24.70
2019-04-25T10:21:16.464Z,24.60
2019-04-25T10:23:46.786Z,24.40
2019-04-25T10:26:19.454Z,24.90
2019-04-25T10:28:51.840Z,25.10
2019-04-25T10:31:23.766Z,25.40
2019-04-25T10:33:54.599Z,25.70
2019-04-25T10:36:25.203Z,25.40
2019-04-25T10:39:07.264Z,25.60
2019-04-25T10:41:27.208Z,25.70
2019-04-25T10:43:57.277Z,25.90
2019-04-25T10:46:27.449Z,26.40
2019-04-25T10:48:57.701Z,26.90
2019-04-25T10:51:28.215Z,26.80
2019-04-25T10:53:58.343Z,26.00
2019-04-25T10:56:31.409Z,25.60
2019-04-25T10:59:01.570Z,25.40
2019-04-25T11:01:33.776Z,25.40
2019-04-25T11:04:13.943Z,25.60
2019-04-25T11:06:45.465Z,26.80
2019-04-25T11:09:25.111Z,27.20
2019-04-25T11:11:55.476Z,27.10
2019-04-25T11:14:27.996Z,27.00
2019-04-25T11:16:58.242Z,27.20
2019-04-25T11:19:28.458Z,28.10
2019-04-25T11:21:58.752Z,28.10
2019-04-25T11:24:31.757Z,27.70
2019-04-25T11:27:04.295Z,27.50
2019-04-25T11:29:34.652Z,27.60
2019-04-25T11:32:06.301Z,27.60
2019-04-25T11:34:36.482Z,27.60
2019-04-25T11:37:06.691Z,27.50
2019-04-25T11:39:54.983Z,27.50
2019-04-25T11:42:26.800Z,27.60
2019-04-25T11:44:57.011Z,27.00
2019-04-25T11:47:27.329Z,27.60
2019-04-25T11:49:58.125Z,27.50
2019-04-25T11:52:30.372Z,27.40
2019-04-25T11:55:00.226Z,27.80
2019-04-25T11:57:30.301Z,27.00
2019-04-25T12:00:00.446Z,26.40
2019-04-25T12:02:30.743Z,27.00
2019-04-25T12:05:00.860Z,26.70
2019-04-25T12:07:31.257Z,27.30
2019-04-25T12:10:01.425Z,28.00
2019-04-25T12:12:33.851Z,28.00
2019-04-25T12:15:05.181Z,28.40
2019-04-25T12:17:36.963Z,28.50
2019-04-25T12:20:08.094Z,28.30
2019-04-25T12:22:38.347Z,28.80
2019-04-25T12:25:09.077Z,29.00
2019-04-25T12:27:39.572Z,29.80
2019-04-25T12:30:10.476Z,28.80
2019-04-25T12:32:40.639Z,28.60
2019-04-25T12:35:10.867Z,28.50
2019-04-25T12:37:40.963Z,27.70
2019-04-25T12:40:14.090Z,27.70
2019-04-25T12:42:46.257Z,28.30
2019-04-25T12:45:47.989Z,27.90
2019-04-25T12:48:18.343Z,28.00
2019-04-25T12:50:48.635Z,28.70
2019-04-25T12:53:18.765Z,28.90
2019-04-25T12:55:49.018Z,28.40
2019-04-25T12:58:19.219Z,28.10
2019-04-25T13:00:54.202Z,29.00
2019-04-25T13:03:21.566Z,28.90
2019-04-25T13:05:51.639Z,28.30
2019-04-25T13:08:21.805Z,27.70
2019-04-25T13:10:51.941Z,27.60
2019-04-25T13:13:22.615Z,27.90
2019-04-25T13:15:53.864Z,28.10
2019-04-25T13:18:24.041Z,28.60
2019-04-25T13:20:56.047Z,30.00
2019-04-25T13:23:26.129Z,30.40
2019-04-25T13:25:57.304Z,29.30
2019-04-25T13:28:54.047Z,29.10
2019-04-25T13:32:01.015Z,29.40
2019-04-25T13:34:37.531Z,30.30
2019-04-25T13:37:08.955Z,31.90
2019-04-25T13:39:39.569Z,32.10
2019-04-25T13:42:10.418Z,30.10
2019-04-25T13:44:40.789Z,28.40
2019-04-25T13:47:10.957Z,27.80
2019-04-25T13:49:42.571Z,27.70
2019-04-25T13:52:13.090Z,27.00
2019-04-25T13:54:43.588Z,26.90
2019-04-25T13:57:15.077Z,26.30
2019-04-25T13:59:45.870Z,26.30
2019-04-25T14:02:16.422Z,26.40
2019-04-25T14:04:46.997Z,26.30
2019-04-25T14:07:17.101Z,26.20
2019-04-25T14:09:47.366Z,26.00
2019-04-25T14:12:17.863Z,26.00
2019-04-25T14:14:47.970Z,26.10
2019-04-25T14:17:33.839Z,25.80
2019-04-25T14:20:15.989Z,25.30
2019-04-25T14:22:46.231Z,25.20
2019-04-25T14:25:16.989Z,25.80
2019-04-25T14:27:47.233Z,25.70
2019-04-25T14:30:19.743Z,25.70
2019-04-25T14:32:50.160Z,24.90
2019-04-25T14:35:20.365Z,24.40
2019-04-25T14:37:50.909Z,24.50
2019-04-25T14:40:21.583Z,25.10
2019-04-25T14:42:52.937Z,24.80
2019-04-25T14:45:24.273Z,24.90
2019-04-25T14:47:54.915Z,24.90
2019-04-25T14:50:25.552Z,24.60
2019-04-25T14:52:56.097Z,24.30
2019-04-25T14:55:46.991Z,24.10
2019-04-25T14:58:18.118Z,24.20
2019-04-25T15:00:50.159Z,24.10
2019-04-25T15:03:23.090Z,24.20
2019-04-25T15:05:54.145Z,24.10
2019-04-25T15:08:24.967Z,24.30
2019-04-25T15:10:55.109Z,24.30
2019-04-25T15:13:25.792Z,24.50
2019-04-25T15:15:56.272Z,24.60
2019-04-25T15:18:26.700Z,24.60
2019-04-25T15:20:57.091Z,24.70
2019-04-25T15:23:27.341Z,24.80
2019-04-25T15:25:57.935Z,25.10
2019-04-25T15:28:28.074Z,25.60
2019-04-25T15:30:58.337Z,25.70
2019-04-25T15:33:28.560Z,26.10
2019-04-25T15:36:05.889Z,27.20
2019-04-25T15:38:41.962Z,27.90
2019-04-25T15:41:22.380Z,29.90
2019-04-25T15:44:14.460Z,30.50
2019-04-25T15:46:45.156Z,30.00
2019-04-25T15:49:15.331Z,29.30
2019-04-25T15:51:45.442Z,30.40
2019-04-25T15:54:15.603Z,30.10
2019-04-25T15:56:45.688Z,29.90
2019-04-25T15:59:16.315Z,30.30
2019-04-25T16:01:46.487Z,31.00
2019-04-25T16:04:16.668Z,30.60
2019-04-25T16:06:47.101Z,30.30
2019-04-25T16:09:17.477Z,30.80
2019-04-25T16:11:49.407Z,30.20
2019-04-25T16:14:19.574Z,30.20
2019-04-25T16:16:49.747Z,30.20
2019-04-25T16:19:19.929Z,30.30
2019-04-25T16:21:50.306Z,30.80
2019-04-25T16:24:20.446Z,30.70
2019-04-25T16:26:51.091Z,30.40
2019-04-25T16:29:21.326Z,30.30
2019-04-25T16:31:51.490Z,30.90
2019-04-25T16:34:21.665Z,30.30
2019-04-25T16:36:51.775Z,30.30
2019-04-25T16:39:24.167Z,30.70
2019-04-25T16:41:54.551Z,29.50
2019-04-25T16:44:24.713Z,29.70
2019-04-25T16:46:54.919Z,30.10
2019-04-25T16:49:25.292Z,29.60
2019-04-25T16:51:55.498Z,27.50
2019-04-25T16:54:27.461Z,27.40
2019-04-25T16:56:58.641Z,27.10
2019-04-25T16:59:29.622Z,27.10
2019-04-25T17:01:59.961Z,27.60
2019-04-25T17:04:31.174Z,27.70
2019-04-25T17:07:01.450Z,28.10
2019-04-25T17:09:33.819Z,28.50
2019-04-25T17:12:07.524Z,28.10
2019-04-25T17:15:15.382Z,26.80
2019-04-25T17:18:00.470Z,25.40
2019-04-25T17:20:34.404Z,24.90
2019-04-25T17:23:06.350Z,24.50
2019-04-25T17:25:37.298Z,24.30
2019-04-25T17:28:07.995Z,24.10
2019-04-25T17:30:42.309Z,23.90
2019-04-25T17:33:31.256Z,23.60
2019-04-25T17:36:07.610Z,23.70
2019-04-25T17:38:43.769Z,23.70
2019-04-25T17:41:16.774Z,23.40
2019-04-25T17:43:46.955Z,23.20
2019-04-25T17:46:18.999Z,22.80
2019-04-25T17:48:49.175Z,22.60
2019-04-25T17:51:19.838Z,22.50
2019-04-25T17:53:51.457Z,22.50
2019-04-25T17:56:21.839Z,22.20
2019-04-25T17:58:52.031Z,22.20
2019-04-25T18:01:24.357Z,22.20
2019-04-25T18:03:54.699Z,22.00
2019-04-25T18:06:24.851Z,22.20
2019-04-25T18:08:55.027Z,21.80
2019-04-25T18:11:25.129Z,21.60
2019-04-25T18:13:55.332Z,21.50
2019-04-25T18:16:34.880Z,21.40
2019-04-25T18:19:09.878Z,21.40
2019-04-25T18:21:40.703Z,21.40
2019-04-25T18:24:28.672Z,21.20
2019-04-25T18:27:14.372Z,21.00
2019-04-25T18:29:44.792Z,21.20
2019-04-25T18:32:15.419Z,20.90
2019-04-25T18:34:55.133Z,20.80
2019-04-25T18:37:42.901Z,20.90
2019-04-25T18:40:44.162Z,20.60
2019-04-25T18:43:51.966Z,20.60
2019-04-25T18:46:28.925Z,20.40
2019-04-25T18:48:59.070Z,20.30
2019-04-25T18:51:29.258Z,20.40
2019-04-25T18:54:27.250Z,20.20
2019-04-25T18:57:04.961Z,20.10
2019-04-25T19:00:03.234Z,20.20
2019-04-25T19:03:00.059Z,20.00
2019-04-25T19:05:47.196Z,20.10
2019-04-25T19:08:19.759Z,20.00
2019-04-25T19:10:50.154Z,19.90
2019-04-25T19:13:20.308Z,19.90
2019-04-25T19:15:51.426Z,19.80
2019-04-25T19:18:22.088Z,19.90
2019-04-25T19:20:52.418Z,19.90
2019-04-25T19:23:24.180Z,19.90
2019-04-25T19:25:54.357Z,19.90
2019-04-25T19:28:24.471Z,19.60
2019-04-25T19:30:54.969Z,19.60
2019-04-25T19:33:35.078Z,19.60
2019-04-25T19:35:57.149Z,19.50
2019-04-25T19:38:27.483Z,19.40
2019-04-25T19:41:12.577Z,19.50
2019-04-25T19:43:58.200Z,19.50
2019-04-25T19:46:49.262Z,19.40
2019-04-25T19:49:19.530Z,19.40
2019-04-25T19:51:49.752Z,19.40
2019-04-25T19:54:20.409Z,19.50
2019-04-25T19:56:50.519Z,19.40
2019-04-25T19:59:20.951Z,19.30
2019-04-25T20:01:53.004Z,19.30
2019-04-25T20:04:39.429Z,19.20
2019-04-25T20:07:31.312Z,19.10
2019-04-25T20:10:19.079Z,19.10
2019-04-25T20:12:52.123Z,18.90
2019-04-25T20:15:23.119Z,18.80
2019-04-25T20:17:54.208Z,18.80
2019-04-25T20:20:25.169Z,18.70
2019-04-25T20:22:55.355Z,18.60
2019-04-25T20:25:25.541Z,18.70
2019-04-25T20:27:56.046Z,18.80
2019-04-25T20:30:26.575Z,18.80
2019-04-25T20:32:56.859Z,18.60
2019-04-25T20:35:27.528Z,18.50
2019-04-25T20:37:57.736Z,18.50
2019-04-25T20:40:28.243Z,18.50
2019-04-25T20:42:58.446Z,18.50
2019-04-25T20:45:29.003Z,18.50
2019-04-25T20:47:59.806Z,18.30
2019-04-25T20:50:30.307Z,18.30
2019-04-25T20:53:00.513Z,18.40
2019-04-25T20:55:30.632Z,18.40
2019-04-25T20:58:00.827Z,18.50
2019-04-25T21:00:52.260Z,18.30
2019-04-25T21:03:22.985Z,18.00
2019-04-25T21:05:55.376Z,17.70
2019-04-25T21:08:25.606Z,17.70
2019-04-25T21:10:55.868Z,17.50
2019-04-25T21:13:35.469Z,17.50
2019-04-25T21:16:25.752Z,17.70
2019-04-25T21:19:03.599Z,17.30
2019-04-25T21:21:33.718Z,17.10
2019-04-25T21:24:04.408Z,17.10
2019-04-25T21:26:34.857Z,17.00
2019-04-25T21:29:05.134Z,17.10
2019-04-25T21:31:35.653Z,16.90
2019-04-25T21:34:06.867Z,17.00
2019-04-25T21:36:37.638Z,16.90
2019-04-25T21:39:13.665Z,16.80
2019-04-25T21:42:01.884Z,16.80
2019-04-25T21:44:32.501Z,16.80
2019-04-25T21:47:03.210Z,16.80
2019-04-25T21:49:33.969Z,16.80
2019-04-25T21:52:04.533Z,16.80
2019-04-25T21:54:35.238Z,16.70
2019-04-25T21:57:06.925Z,16.60
2019-04-25T21:59:37.148Z,16.80
2019-04-25T22:02:08.296Z,16.90
2019-04-25T22:04:40.594Z,16.90
2019-04-25T22:07:10.949Z,17.00
2019-04-25T22:09:41.700Z,17.30
2019-04-25T22:12:13.978Z,17.30
2019-04-25T22:14:44.317Z,17.30
2019-04-25T22:17:14.819Z,17.30
2019-04-25T22:19:45.794Z,17.30
2019-04-25T22:22:16.788Z,17.10
2019-04-25T22:24:47.808Z,16.90
2019-04-25T22:27:23.429Z,16.80
2019-04-25T22:29:58.759Z,16.70
2019-04-25T22:32:48.857Z,16.70
2019-04-25T22:35:25.659Z,16.80
2019-04-25T22:37:55.947Z,16.70
2019-04-25T22:40:26.115Z,16.60
2019-04-25T22:42:56.998Z,16.50
2019-04-25T22:45:27.116Z,16.40
2019-04-25T22:47:58.029Z,16.30
2019-04-25T22:50:28.845Z,15.90
2019-04-25T22:52:59.928Z,15.70
2019-04-25T22:55:31.743Z,15.40
2019-04-25T22:58:02.753Z,15.30
2019-04-25T23:00:37.461Z,15.10
2019-04-25T23:03:14.337Z,15.20
2019-04-25T23:05:48.290Z,15.10
2019-04-25T23:08:19.471Z,15.20
2019-04-25T23:10:49.857Z,15.10
2019-04-25T23:13:20.936Z,15.00
2019-04-25T23:15:51.181Z,15.10
2019-04-25T23:18:21.917Z,15.00
2019-04-25T23:20:52.074Z,15.10
2019-04-25T23:23:22.489Z,15.00
2019-04-25T23:26:14.880Z,15.00
2019-04-25T23:28:46.723Z,15.00
2019-04-25T23:31:24.351Z,14.90
2019-04-25T23:33:55.157Z,14.80
2019-04-25T23:36:25.334Z,14.60
2019-04-25T23:38:55.599Z,14.40
2019-04-25T23:41:26.248Z,14.20
2019-04-25T23:43:56.663Z,14.10
2019-04-25T23:46:27.194Z,14.00
2019-04-25T23:48:58.039Z,14.00
2019-04-25T23:51:28.173Z,13.80
2019-04-25T23:53:58.772Z,13.80
2019-04-25T23:56:29.592Z,13.60
2019-04-25T23:59:00.006Z,13.60
